Time;durP1;ratioP1;P1;durP2;ratioP2;P2;SDS_P1;SDS_P2;PMS_P1;PMS_P2;Temp;Humidity;BMP_temperature;BMP_pressure;BME280_temperature;BME280_humidity;BME280_pressure;Samples;Min_cycle;Max_cycle;Signal;HPM_P1;HPM_P2
2023/01/23 00:01:09;;;;;;;16.47;14.17;;;2.80;99.90;;;;;;5076905;28;20466;-71
2023/01/23 00:03:34;;;;;;;26.33;18.50;;;2.70;99.90;;;;;;5076683;28;20803;-71
2023/01/23 00:06:03;;;;;;;19.23;15.20;;;2.50;99.90;;;;;;5076884;28;20416;-71
2023/01/23 00:08:29;;;;;;;23.90;18.97;;;2.40;99.90;;;;;;5076670;28;20186;-71
2023/01/23 00:10:55;;;;;;;21.10;16.10;;;2.50;99.90;;;;;;5075611;28;20451;-71
2023/01/23 00:13:21;;;;;;;23.90;19.33;;;2.60;99.90;;;;;;5076870;28;20411;-72
2023/01/23 00:15:47;;;;;;;19.20;15.93;;;2.70;99.90;;;;;;5076860;28;20416;-71
2023/01/23 00:18:13;;;;;;;24.10;19.10;;;2.60;99.90;;;;;;5076565;28;20173;-71
2023/01/23 00:20:40;;;;;;;16.40;13.90;;;2.70;99.90;;;;;;5058606;28;20706;-72
2023/01/23 00:23:06;;;;;;;16.00;14.20;;;2.80;99.90;;;;;;5077061;28;20166;-71
2023/01/23 00:25:35;;;;;;;23.73;17.53;;;2.60;99.90;;;;;;5075978;28;20400;-71
2023/01/23 00:28:01;;;;;;;17.07;14.27;;;2.50;99.90;;;;;;5058236;28;20419;-72
2023/01/23 00:30:27;;;;;;;15.60;13.20;;;2.50;99.90;;;;;;5076918;28;20482;-71
2023/01/23 00:32:53;;;;;;;15.27;13.67;;;2.40;99.90;;;;;;5058642;28;20412;-71
2023/01/23 00:35:18;;;;;;;16.30;13.93;;;2.30;99.90;;;;;;5058482;28;20181;-72
2023/01/23 00:37:44;;;;;;;17.20;13.90;;;2.30;99.90;;;;;;5076552;28;20209;-71
2023/01/23 00:40:10;;;;;;;17.10;14.10;;;2.40;99.90;;;;;;5057952;28;20186;-72
2023/01/23 00:42:35;;;;;;;24.23;17.30;;;2.30;99.90;;;;;;5076664;28;20166;-72
2023/01/23 00:45:01;;;;;;;17.43;13.97;;;2.30;99.90;;;;;;5075902;28;20411;-71
2023/01/23 00:47:27;;;;;;;23.93;15.60;;;2.30;99.90;;;;;;5058020;28;20177;-71
2023/01/23 00:49:54;;;;;;;17.77;13.47;;;2.30;99.90;;;;;;5075856;28;20212;-71
2023/01/23 00:52:19;;;;;;;18.80;13.00;;;2.40;99.90;;;;;;5076207;28;20192;-71
2023/01/23 00:54:45;;;;;;;24.73;15.73;;;2.60;99.90;;;;;;5057521;28;20856;-71
2023/01/23 00:57:10;;;;;;;21.30;15.43;;;2.70;99.90;;;;;;5076232;28;20641;-71
2023/01/23 00:59:36;;;;;;;20.30;15.70;;;3.00;99.90;;;;;;5076209;28;20194;-72
2023/01/23 01:02:01;;;;;;;16.23;13.33;;;2.90;99.90;;;;;;5076448;28;20166;-72
2023/01/23 01:04:27;;;;;;;26.17;15.70;;;3.10;99.90;;;;;;5075791;28;20166;-71
2023/01/23 01:06:53;;;;;;;17.10;13.50;;;3.20;99.90;;;;;;5075753;28;20536;-71
2023/01/23 01:09:18;;;;;;;18.97;15.17;;;3.10;99.90;;;;;;5075009;28;20256;-72
2023/01/23 01:11:44;;;;;;;23.43;15.43;;;3.30;99.90;;;;;;5075586;28;20613;-71
2023/01/23 01:14:09;;;;;;;14.93;12.30;;;3.50;99.90;;;;;;5075612;28;20688;-71
2023/01/23 01:16:36;;;;;;;15.50;12.77;;;3.50;99.90;;;;;;5057824;28;20202;-72
2023/01/23 01:19:02;;;;;;;15.57;11.80;;;3.50;99.90;;;;;;5076563;28;20173;-72
2023/01/23 01:21:29;;;;;;;15.17;12.73;;;3.60;99.90;;;;;;5076750;28;20424;-72
2023/01/23 01:23:54;;;;;;;14.53;12.93;;;3.70;99.90;;;;;;5058062;28;20412;-72
2023/01/23 01:26:21;;;;;;;13.70;12.30;;;3.50;99.90;;;;;;5076377;28;20466;-72
2023/01/23 01:28:47;;;;;;;17.40;14.03;;;3.40;99.90;;;;;;5059929;28;20776;-71
2023/01/23 01:31:14;;;;;;;15.73;13.20;;;3.10;99.90;;;;;;5056291;28;20444;-72
2023/01/23 01:33:42;;;;;;;13.43;11.90;;;3.20;99.90;;;;;;5037768;28;20408;-72
2023/01/23 01:36:12;;;;;;;14.07;12.57;;;3.20;99.90;;;;;;5056144;28;20402;-71
2023/01/23 01:38:38;;;;;;;15.30;13.00;;;3.20;99.90;;;;;;5058029;28;20523;-72
2023/01/23 01:41:05;;;;;;;12.27;10.93;;;3.20;99.90;;;;;;5074778;28;20460;-72
2023/01/23 01:43:31;;;;;;;16.53;13.20;;;3.10;99.90;;;;;;5075041;28;20454;-71
2023/01/23 01:46:11;;;;;;;15.97;12.90;;;3.30;99.90;;;;;;5057074;28;20907;-72
2023/01/23 01:48:45;;;;;;;15.83;13.80;;;3.20;99.90;;;;;;5057069;28;20193;-71
2023/01/23 01:51:31;;;;;;;13.57;12.17;;;3.20;99.90;;;;;;5056943;28;20499;-71
2023/01/23 01:54:35;;;;;;;15.70;13.30;;;3.30;99.90;;;;;;5074633;28;20388;-72
2023/01/23 01:57:12;;;;;;;14.57;12.97;;;3.40;99.90;;;;;;5057645;28;20420;-72
2023/01/23 01:59:46;;;;;;;14.80;12.00;;;3.50;99.90;;;;;;5056617;28;20532;-71
2023/01/23 02:02:15;;;;;;;14.53;12.40;;;3.30;99.90;;;;;;5074903;28;20483;-72
2023/01/23 02:04:48;;;;;;;14.33;11.70;;;3.30;99.90;;;;;;5073879;28;20965;-71
2023/01/23 02:07:39;;;;;;;15.00;12.67;;;3.20;99.90;;;;;;5074443;28;20462;-71
2023/01/23 02:10:07;;;;;;;13.67;11.80;;;2.90;99.90;;;;;;5073898;28;20424;-71
2023/01/23 02:12:34;;;;;;;13.57;12.17;;;3.00;99.90;;;;;;5074335;28;20451;-72
2023/01/23 02:15:04;;;;;;;13.30;11.90;;;3.10;99.90;;;;;;5074517;28;20891;-71
2023/01/23 02:17:30;;;;;;;13.27;11.23;;;3.20;99.90;;;;;;5074631;28;20389;-71
2023/01/23 02:20:14;;;;;;;12.37;11.03;;;3.10;99.90;;;;;;5073348;28;20507;-71
2023/01/23 02:23:04;;;;;;;14.07;12.40;;;3.00;99.90;;;;;;5073913;28;20408;-71
2023/01/23 02:25:44;;;;;;;13.67;11.37;;;2.90;99.90;;;;;;5055551;28;20444;-71
2023/01/23 02:28:15;;;;;;;14.00;11.37;;;3.10;99.90;;;;;;5074333;28;20871;-72
2023/01/23 02:30:43;;;;;;;14.03;12.37;;;3.30;99.90;;;;;;5073627;28;20452;-72
2023/01/23 02:33:19;;;;;;;14.20;12.27;;;3.10;99.90;;;;;;5073920;28;20400;-71
2023/01/23 02:35:45;;;;;;;15.13;12.97;;;2.80;99.90;;;;;;5074301;28;20380;-72
2023/01/23 02:38:11;;;;;;;13.43;12.03;;;2.90;99.90;;;;;;5073343;28;20423;-71
2023/01/23 02:40:39;;;;;;;14.23;11.63;;;2.50;99.90;;;;;;5055499;28;20534;-71
2023/01/23 02:43:08;;;;;;;18.03;14.70;;;2.50;99.90;;;;;;5073760;28;20396;-71
2023/01/23 02:45:34;;;;;;;14.37;12.70;;;2.80;99.90;;;;;;5073980;28;20431;-72
2023/01/23 02:48:00;;;;;;;16.20;13.30;;;2.90;99.90;;;;;;5073674;28;20392;-72
2023/01/23 02:50:26;;;;;;;14.60;13.03;;;3.10;99.90;;;;;;5073682;28;20950;-72
2023/01/23 02:52:53;;;;;;;13.03;11.73;;;3.30;99.90;;;;;;5055738;28;20170;-72
2023/01/23 02:55:20;;;;;;;14.00;12.13;;;3.30;99.90;;;;;;5055238;28;20408;-72
2023/01/23 02:57:45;;;;;;;13.40;11.60;;;3.10;99.90;;;;;;5073562;28;20468;-71
2023/01/23 03:00:15;;;;;;;14.70;12.97;;;3.30;99.90;;;;;;5073654;28;20854;-71
2023/01/23 03:02:41;;;;;;;17.63;14.70;;;3.40;99.90;;;;;;5073841;28;20173;-72
2023/01/23 03:05:08;;;;;;;15.60;13.30;;;3.20;99.90;;;;;;5055508;28;20419;-72
2023/01/23 03:07:34;;;;;;;13.60;12.20;;;3.10;99.90;;;;;;5073798;28;20423;-72
2023/01/23 03:10:01;;;;;;;15.03;12.70;;;3.30;99.90;;;;;;5072793;28;20506;-71
2023/01/23 03:12:26;;;;;;;16.60;13.27;;;3.10;99.90;;;;;;5073351;28;20468;-71
2023/01/23 03:14:53;;;;;;;16.80;14.17;;;3.00;99.90;;;;;;5073440;28;20432;-72
2023/01/23 03:17:20;;;;;;;18.50;14.50;;;3.00;99.90;;;;;;5055577;28;20466;-72
2023/01/23 03:19:45;;;;;;;15.30;13.07;;;2.90;99.90;;;;;;5056128;28;20459;-72
2023/01/23 03:22:11;;;;;;;15.87;13.27;;;3.10;99.90;;;;;;5055430;28;20440;-71
2023/01/23 03:24:38;;;;;;;15.77;12.47;;;3.20;99.90;;;;;;5054766;28;20213;-72
2023/01/23 03:27:03;;;;;;;14.33;12.83;;;3.40;99.90;;;;;;5073317;28;20415;-72
2023/01/23 03:32:14;;;;;;;15.30;13.10;;;3.30;99.90;;;;;;5072012;28;20240;-72
2023/01/23 03:34:40;;;;;;;16.53;14.73;;;3.20;99.90;;;;;;5053347;28;20413;-71
2023/01/23 03:37:06;;;;;;;14.43;12.23;;;3.10;99.90;;;;;;5035324;28;20464;-71
2023/01/23 03:42:17;;;;;;;19.90;16.20;;;3.20;99.90;;;;;;5073599;28;20388;-72
2023/01/23 03:44:42;;;;;;;20.27;15.20;;;3.20;99.90;;;;;;5073446;28;20416;-72
2023/01/23 03:47:08;;;;;;;18.63;14.43;;;3.40;99.90;;;;;;5073050;28;20170;-72
2023/01/23 03:49:34;;;;;;;25.23;15.97;;;3.40;99.90;;;;;;5072904;28;20205;-72
2023/01/23 03:52:00;;;;;;;22.00;17.17;;;3.10;99.90;;;;;;5054921;28;20476;-71
2023/01/23 03:54:26;;;;;;;19.30;15.90;;;3.20;99.90;;;;;;5072869;28;20169;-72
2023/01/23 03:56:52;;;;;;;17.73;14.33;;;3.40;99.90;;;;;;5073076;28;20447;-71
2023/01/23 03:59:17;;;;;;;22.23;16.07;;;3.50;99.90;;;;;;5055759;28;20440;-72
2023/01/23 04:01:43;;;;;;;15.77;13.57;;;3.60;99.90;;;;;;5073649;28;20675;-72
2023/01/23 04:04:09;;;;;;;14.00;12.03;;;3.60;99.90;;;;;;5054999;28;20304;-72
2023/01/23 04:06:34;;;;;;;17.20;14.47;;;3.60;99.90;;;;;;5072330;28;20660;-71
2023/01/23 04:09:00;;;;;;;16.53;14.27;;;3.50;99.90;;;;;;5054531;28;20664;-72
2023/01/23 04:11:26;;;;;;;16.87;14.70;;;3.30;99.90;;;;;;5054809;28;20672;-72
2023/01/23 04:13:52;;;;;;;18.43;14.87;;;3.30;99.90;;;;;;5073153;28;20166;-71
2023/01/23 04:16:18;;;;;;;19.70;14.50;;;3.30;99.90;;;;;;5054816;28;20177;-72
2023/01/23 04:18:44;;;;;;;20.67;15.87;;;3.30;99.90;;;;;;5054824;28;20404;-72
2023/01/23 04:21:10;;;;;;;16.37;13.60;;;3.00;99.90;;;;;;5072647;28;20236;-71
2023/01/23 04:23:35;;;;;;;17.57;14.80;;;3.10;99.90;;;;;;5072683;28;20182;-71
2023/01/23 04:26:01;;;;;;;19.00;14.97;;;3.40;99.90;;;;;;5072744;28;20249;-71
2023/01/23 04:28:26;;;;;;;15.87;13.47;;;3.20;99.90;;;;;;5073287;28;20236;-71
2023/01/23 04:30:52;;;;;;;16.07;13.27;;;3.10;99.90;;;;;;5054557;28;20252;-71
2023/01/23 04:33:19;;;;;;;15.53;13.10;;;3.20;99.90;;;;;;5072424;28;20171;-71
2023/01/23 04:35:56;;;;;;;18.90;15.80;;;2.90;99.90;;;;;;5073016;28;20162;-71
2023/01/23 04:38:23;;;;;;;17.80;14.63;;;3.10;99.90;;;;;;5054034;28;20902;-71
2023/01/23 04:40:49;;;;;;;17.20;14.27;;;3.20;99.90;;;;;;5053671;28;20451;-72
2023/01/23 04:43:15;;;;;;;17.90;14.80;;;3.40;99.90;;;;;;5075780;28;20404;-71
2023/01/23 04:45:41;;;;;;;18.80;14.37;;;3.60;99.90;;;;;;5076137;28;20404;-71
2023/01/23 04:48:07;;;;;;;19.20;14.87;;;3.60;99.90;;;;;;5058339;28;20174;-71
2023/01/23 04:50:32;;;;;;;16.10;13.87;;;3.50;99.90;;;;;;5075687;28;20475;-72
2023/01/23 04:52:58;;;;;;;17.67;14.50;;;3.40;99.90;;;;;;5058002;28;20214;-71
2023/01/23 04:55:23;;;;;;;14.43;12.63;;;3.40;99.90;;;;;;5075633;28;20215;-72
2023/01/23 04:57:49;;;;;;;17.93;14.67;;;3.60;99.90;;;;;;5075918;28;20155;-72
2023/01/23 05:00:16;;;;;;;16.40;14.70;;;3.70;99.90;;;;;;5057983;28;20189;-72
2023/01/23 05:02:41;;;;;;;18.70;15.00;;;3.60;99.90;;;;;;5076236;28;20396;-72
2023/01/23 05:05:07;;;;;;;18.50;14.57;;;3.60;99.90;;;;;;5075913;28;20990;-72
2023/01/23 05:07:33;;;;;;;16.53;14.00;;;3.50;99.90;;;;;;5075716;28;20166;-72
2023/01/23 05:09:58;;;;;;;15.93;14.07;;;3.40;99.90;;;;;;5075228;28;20938;-72
2023/01/23 05:12:24;;;;;;;17.87;14.60;;;3.40;99.90;;;;;;5076012;28;20561;-72
2023/01/23 05:14:49;;;;;;;17.20;14.63;;;3.40;99.90;;;;;;5076960;28;20687;-72
2023/01/23 05:17:15;;;;;;;19.23;15.67;;;3.50;99.90;;;;;;5077369;28;20532;-72
2023/01/23 05:19:40;;;;;;;18.70;15.03;;;3.70;99.90;;;;;;5077047;28;20178;-72
2023/01/23 05:22:06;;;;;;;16.47;14.23;;;3.80;99.90;;;;;;5077480;28;20177;-72
2023/01/23 05:24:32;;;;;;;18.13;14.00;;;3.80;99.90;;;;;;5057967;28;20521;-72
2023/01/23 05:26:57;;;;;;;16.80;14.10;;;3.70;99.90;;;;;;5058073;28;20169;-75
2023/01/23 05:29:23;;;;;;;18.37;15.57;;;3.70;99.90;;;;;;5059013;28;20255;-72
2023/01/23 05:31:48;;;;;;;17.50;14.33;;;3.80;99.90;;;;;;5077390;28;20231;-71
2023/01/23 05:34:14;;;;;;;17.13;15.03;;;3.70;99.90;;;;;;5057529;28;20585;-71
2023/01/23 05:36:40;;;;;;;16.67;14.13;;;3.70;99.90;;;;;;5040498;28;20266;-72
2023/01/23 05:39:05;;;;;;;17.67;14.57;;;3.60;99.90;;;;;;5059551;28;20277;-72
2023/01/23 05:41:31;;;;;;;21.80;18.13;;;3.70;99.90;;;;;;5057626;28;20735;-72
2023/01/23 05:43:56;;;;;;;19.80;15.67;;;3.60;99.90;;;;;;5057024;28;20600;-72
2023/01/23 05:46:22;;;;;;;18.47;15.47;;;3.60;99.90;;;;;;5057368;28;20197;-72
2023/01/23 05:48:49;;;;;;;16.73;12.77;;;3.50;99.90;;;;;;5074940;28;20633;-73
2023/01/23 05:51:15;;;;;;;19.70;14.97;;;3.10;99.90;;;;;;5056510;28;20210;-72
2023/01/23 05:53:40;;;;;;;14.80;13.07;;;3.10;99.90;;;;;;5073847;28;20503;-71
2023/01/23 05:56:07;;;;;;;17.00;13.50;;;3.30;99.90;;;;;;5057423;28;20177;-72
2023/01/23 05:58:32;;;;;;;18.60;14.10;;;3.20;99.90;;;;;;5075209;28;20226;-71
2023/01/23 06:00:58;;;;;;;17.53;13.77;;;3.10;99.90;;;;;;5074831;28;20507;-72
2023/01/23 06:03:24;;;;;;;17.10;14.10;;;3.00;99.90;;;;;;5074520;28;20170;-71
2023/01/23 06:05:49;;;;;;;17.30;13.33;;;3.20;99.90;;;;;;5056126;28;20265;-72
2023/01/23 06:08:15;;;;;;;18.93;14.67;;;3.20;99.90;;;;;;5074479;28;20170;-72
2023/01/23 06:10:40;;;;;;;19.10;15.40;;;3.30;99.90;;;;;;5055830;28;20201;-72
2023/01/23 06:13:06;;;;;;;20.20;15.10;;;3.40;99.90;;;;;;5056550;28;20710;-72
2023/01/23 06:15:31;;;;;;;19.20;15.03;;;3.50;99.90;;;;;;5072983;28;20178;-71
2023/01/23 06:17:57;;;;;;;17.13;14.13;;;3.50;99.90;;;;;;5056470;28;20180;-72
2023/01/23 06:20:22;;;;;;;19.73;15.37;;;3.50;99.90;;;;;;5056410;28;20190;-72
2023/01/23 06:22:48;;;;;;;19.13;15.00;;;3.10;99.90;;;;;;5074339;28;20228;-71
2023/01/23 06:25:14;;;;;;;20.60;15.57;;;3.20;99.90;;;;;;5073601;28;20184;-72
2023/01/23 06:27:39;;;;;;;16.57;13.70;;;3.30;99.90;;;;;;5073712;28;20265;-72
2023/01/23 06:30:06;;;;;;;20.20;14.77;;;3.10;99.90;;;;;;5074066;28;20201;-72
2023/01/23 06:32:31;;;;;;;18.57;13.93;;;3.20;99.90;;;;;;5074873;28;20202;-72
2023/01/23 06:34:57;;;;;;;16.17;14.27;;;3.20;99.90;;;;;;5073873;28;20407;-72
2023/01/23 06:37:22;;;;;;;18.40;14.67;;;3.30;99.90;;;;;;5073775;28;20185;-72
2023/01/23 06:39:48;;;;;;;17.53;13.97;;;3.10;99.90;;;;;;5073786;28;20194;-72
2023/01/23 06:42:13;;;;;;;19.40;15.70;;;2.90;99.90;;;;;;5074036;28;20174;-72
2023/01/23 06:44:39;;;;;;;18.83;14.40;;;3.00;99.90;;;;;;5074467;28;20185;-72
2023/01/23 06:47:04;;;;;;;17.20;13.60;;;3.00;99.90;;;;;;5056036;28;20170;-72
2023/01/23 06:49:30;;;;;;;17.20;14.13;;;2.90;99.90;;;;;;5052084;28;20197;-74
2023/01/23 06:51:56;;;;;;;19.80;15.50;;;3.00;99.90;;;;;;5064314;28;20487;-72
2023/01/23 06:54:21;;;;;;;18.77;13.57;;;2.90;99.90;;;;;;5064056;28;20190;-71
2023/01/23 06:56:48;;;;;;;19.20;14.47;;;2.90;99.90;;;;;;5064955;28;20281;-71
2023/01/23 06:59:14;;;;;;;18.70;14.60;;;2.90;99.90;;;;;;5046835;28;20190;-71
2023/01/23 07:01:39;;;;;;;21.30;13.03;;;3.00;99.90;;;;;;5064453;28;20424;-72
2023/01/23 07:04:05;;;;;;;24.03;15.27;;;2.90;99.90;;;;;;5064576;28;20813;-71
2023/01/23 07:06:31;;;;;;;17.93;13.57;;;3.10;99.90;;;;;;5046142;28;20569;-73
2023/01/23 07:08:56;;;;;;;17.10;13.17;;;3.00;99.90;;;;;;5064078;28;20178;-73
2023/01/23 07:11:23;;;;;;;17.20;13.57;;;2.80;99.90;;;;;;5073263;28;20210;-73
2023/01/23 07:13:48;;;;;;;19.10;14.67;;;2.90;99.90;;;;;;5066408;22;20250;-72
2023/01/23 07:16:14;;;;;;;19.33;15.30;;;2.80;99.90;;;;;;5052871;28;20451;-72
2023/01/23 07:18:39;;;;;;;34.60;25.60;;;3.00;99.90;;;;;;5052872;28;20220;-72
2023/01/23 07:21:05;;;;;;;20.70;14.40;;;2.90;99.90;;;;;;5034979;28;20198;-72
2023/01/23 07:23:32;;;;;;;17.60;14.20;;;2.90;99.90;;;;;;5026277;28;20203;-72
2023/01/23 07:26:03;;;;;;;18.10;15.00;;;2.90;99.90;;;;;;5032466;28;20408;-72
2023/01/23 07:28:29;;;;;;;17.67;13.97;;;2.90;99.90;;;;;;5032926;28;20387;-72
2023/01/23 07:30:57;;;;;;;17.57;13.87;;;2.70;99.90;;;;;;5033177;28;20461;-72
2023/01/23 07:33:23;;;;;;;20.00;15.70;;;2.60;99.90;;;;;;5032640;28;20430;-72
2023/01/23 07:35:49;;;;;;;21.30;15.50;;;2.80;99.90;;;;;;5031242;28;20403;-72
2023/01/23 07:38:14;;;;;;;22.47;17.13;;;2.90;99.90;;;;;;5013550;28;20200;-73
2023/01/23 07:40:41;;;;;;;20.80;15.63;;;3.10;99.90;;;;;;5011544;28;20649;-72
2023/01/23 07:43:07;;;;;;;24.03;15.03;;;3.20;99.90;;;;;;5032648;28;20182;-72
2023/01/23 07:45:32;;;;;;;18.40;14.03;;;3.40;99.90;;;;;;5032933;28;20394;-72
2023/01/23 07:47:58;;;;;;;20.17;15.63;;;3.60;99.90;;;;;;5032712;28;20167;-71
2023/01/23 07:50:23;;;;;;;44.43;30.50;;;3.70;99.90;;;;;;5033135;28;20557;-71
2023/01/23 07:52:49;;;;;;;39.73;28.30;;;3.70;99.90;;;;;;5032440;28;20214;-72
2023/01/23 07:55:15;;;;;;;23.97;18.90;;;3.70;99.90;;;;;;5031933;28;20575;-71
2023/01/23 07:57:41;;;;;;;21.30;15.23;;;3.70;99.90;;;;;;5032869;28;20532;-70
2023/01/23 08:00:08;;;;;;;24.90;13.63;;;3.40;99.90;;;;;;5032658;28;20207;-73
2023/01/23 08:02:33;;;;;;;20.07;15.37;;;3.30;99.90;;;;;;5014317;28;20414;-72
2023/01/23 08:04:59;;;;;;;20.30;15.10;;;3.00;99.90;;;;;;5032937;28;20413;-73
2023/01/23 08:07:24;;;;;;;21.50;16.37;;;2.90;99.90;;;;;;5032679;28;20171;-73
2023/01/23 08:09:50;;;;;;;22.67;16.17;;;3.00;99.90;;;;;;5032157;28;20298;-73
2023/01/23 08:12:15;;;;;;;20.30;16.70;;;3.00;99.90;;;;;;5032462;28;20191;-72
2023/01/23 08:14:41;;;;;;;20.73;15.10;;;3.10;99.90;;;;;;5032000;28;20191;-73
2023/01/23 08:17:06;;;;;;;26.13;16.67;;;3.10;99.90;;;;;;5033704;28;20178;-73
2023/01/23 08:19:32;;;;;;;20.77;15.03;;;2.90;99.90;;;;;;5036726;28;20175;-73
2023/01/23 08:21:57;;;;;;;22.47;16.83;;;2.90;99.90;;;;;;5036509;28;20167;-73
2023/01/23 08:24:23;;;;;;;21.87;16.30;;;2.90;99.90;;;;;;5035735;28;20300;-72
2023/01/23 08:26:48;;;;;;;78.77;38.63;;;2.80;99.90;;;;;;5036799;28;20168;-72
2023/01/23 08:29:14;;;;;;;21.43;16.83;;;2.90;99.90;;;;;;5036064;28;20210;-71
2023/01/23 08:31:40;;;;;;;21.00;16.30;;;2.80;99.90;;;;;;5036207;28;20225;-71
2023/01/23 08:34:05;;;;;;;23.40;16.27;;;2.70;99.90;;;;;;5036114;28;20233;-72
2023/01/23 08:36:31;;;;;;;30.70;21.93;;;2.90;99.90;;;;;;5036284;28;20251;-72
2023/01/23 08:38:57;;;;;;;22.47;16.40;;;3.10;99.90;;;;;;5035093;28;20634;-72
2023/01/23 08:41:23;;;;;;;23.13;16.07;;;3.00;99.90;;;;;;5035912;28;20406;-73
2023/01/23 08:43:49;;;;;;;20.50;15.80;;;2.90;99.90;;;;;;5036533;28;20649;-71
2023/01/23 08:46:15;;;;;;;20.80;15.60;;;2.90;99.90;;;;;;5018172;28;20258;-72
2023/01/23 08:48:40;;;;;;;23.90;16.63;;;2.80;99.90;;;;;;5035748;28;20450;-72
2023/01/23 08:51:09;;;;;;;19.40;14.30;;;2.80;99.90;;;;;;5036534;28;20214;-73
2023/01/23 08:53:35;;;;;;;21.90;15.43;;;2.80;99.90;;;;;;5035836;28;20187;-73
2023/01/23 08:56:06;;;;;;;18.47;14.30;;;2.70;99.90;;;;;;5035183;28;20493;-72
2023/01/23 08:58:32;;;;;;;21.40;15.17;;;2.70;99.90;;;;;;5035961;28;20871;-72
2023/01/23 09:00:58;;;;;;;21.40;15.13;;;2.70;99.90;;;;;;5035618;28;20410;-73
2023/01/23 09:03:24;;;;;;;25.30;17.83;;;2.90;99.90;;;;;;5035572;28;20245;-73
2023/01/23 09:05:50;;;;;;;20.93;15.77;;;2.90;99.90;;;;;;5035669;28;20818;-73
2023/01/23 09:08:15;;;;;;;21.50;16.27;;;3.00;99.90;;;;;;5036045;28;20405;-73
2023/01/23 09:10:41;;;;;;;17.83;12.67;;;3.20;99.90;;;;;;5034798;28;20171;-74
2023/01/23 09:13:07;;;;;;;21.40;16.67;;;3.30;99.90;;;;;;5035826;28;20195;-73
2023/01/23 09:15:33;;;;;;;23.20;18.20;;;3.30;99.90;;;;;;5035318;28;20406;-73
2023/01/23 09:17:58;;;;;;;22.00;15.53;;;3.50;99.90;;;;;;5035351;28;20159;-73
2023/01/23 09:20:25;;;;;;;20.13;16.30;;;3.60;99.90;;;;;;5035384;28;20167;-73
2023/01/23 09:22:51;;;;;;;19.73;15.40;;;3.70;99.90;;;;;;5035057;28;20214;-73
2023/01/23 09:25:17;;;;;;;17.10;13.40;;;3.70;99.90;;;;;;5034791;28;20484;-73
2023/01/23 09:27:43;;;;;;;17.07;14.70;;;3.80;99.90;;;;;;5035106;28;20545;-73
2023/01/23 09:30:09;;;;;;;18.10;13.70;;;3.40;99.90;;;;;;5035127;28;20455;-73
2023/01/23 09:32:35;;;;;;;15.03;11.37;;;3.40;99.90;;;;;;5028324;28;20261;-72
2023/01/23 09:35:00;;;;;;;16.33;12.20;;;3.20;99.90;;;;;;5015386;28;20407;-72
2023/01/23 09:37:58;;;;;;;27.30;20.13;;;3.00;99.90;;;;;;4997549;28;20246;-73
2023/01/23 09:40:17;;;;;;;17.17;14.10;;;3.20;99.90;;;;;;5027409;28;20187;-73
2023/01/23 09:42:43;;;;;;;14.10;12.60;;;3.30;99.90;;;;;;5034802;28;20416;-72
2023/01/23 09:45:14;;;;;;;16.17;12.80;;;3.50;99.90;;;;;;5034793;28;20838;-72
2023/01/23 09:48:06;;;;;;;23.80;15.97;;;3.60;99.90;;;;;;5034917;28;20254;-72
2023/01/23 09:50:36;;;;;;;15.20;12.17;;;3.60;99.90;;;;;;5035421;28;20497;-71
2023/01/23 09:53:12;;;;;;;17.40;13.10;;;3.60;99.90;;;;;;5035165;28;20423;-72
2023/01/23 09:56:21;;;;;;;18.77;12.47;;;3.50;99.90;;;;;;5034060;28;20753;-72
2023/01/23 09:59:05;;;;;;;15.30;11.43;;;3.60;99.90;;;;;;5001001;28;20414;-71
2023/01/23 10:01:30;;;;;;;18.53;12.37;;;3.40;99.90;;;;;;5034444;28;20387;-72
2023/01/23 10:04:00;;;;;;;15.27;12.93;;;3.40;99.90;;;;;;5034395;28;20504;-72
2023/01/23 10:06:32;;;;;;;15.70;12.50;;;3.40;99.90;;;;;;5034648;28;20191;-72
2023/01/23 10:09:20;;;;;;;13.90;12.03;;;3.30;99.90;;;;;;5034187;28;20401;-71
2023/01/23 10:12:03;;;;;;;14.67;11.93;;;3.40;99.90;;;;;;5035220;28;20470;-72
2023/01/23 10:14:49;;;;;;;14.80;11.77;;;3.60;99.90;;;;;;5034131;28;20896;-72
2023/01/23 10:17:46;;;;;;;14.67;11.03;;;3.70;99.90;;;;;;5034463;28;20441;-72
2023/01/23 10:20:38;;;;;;;19.40;14.27;;;4.00;99.90;;;;;;5016485;28;20947;-72
2023/01/23 10:23:29;;;;;;;14.70;11.60;;;3.90;99.90;;;;;;5033489;28;20485;-72
2023/01/23 10:25:55;;;;;;;15.40;11.77;;;3.70;99.90;;;;;;5033559;28;20397;-72
2023/01/23 10:28:37;;;;;;;30.33;17.17;;;3.50;99.90;;;;;;5034152;28;20835;-72
2023/01/23 10:31:37;;;;;;;13.50;11.70;;;3.60;99.90;;;;;;5034169;28;20525;-71
2023/01/23 10:34:12;;;;;;;15.07;11.70;;;3.70;99.90;;;;;;5033974;28;20436;-71
2023/01/23 10:37:00;;;;;;;20.57;15.10;;;3.70;99.90;;;;;;5033983;28;20381;-71
2023/01/23 10:39:31;;;;;;;22.37;16.07;;;3.60;99.90;;;;;;5032812;28;20504;-72
2023/01/23 10:41:57;;;;;;;15.87;12.10;;;4.10;99.90;;;;;;5033835;28;20378;-72
2023/01/23 10:44:22;;;;;;;16.97;11.90;;;4.20;99.90;;;;;;5034007;28;20794;-72
2023/01/23 10:46:55;;;;;;;17.30;13.50;;;4.10;99.90;;;;;;5034051;28;20213;-71
2023/01/23 10:49:29;;;;;;;15.40;12.57;;;3.90;99.90;;;;;;5034438;28;20571;-72
2023/01/23 10:51:55;;;;;;;16.73;12.80;;;3.90;99.90;;;;;;5033674;28;20488;-71
2023/01/23 10:54:23;;;;;;;16.30;12.67;;;4.00;99.90;;;;;;5033273;28;20414;-71
2023/01/23 10:57:01;;;;;;;16.87;11.87;;;3.80;99.90;;;;;;5033551;28;20409;-72
2023/01/23 10:59:50;;;;;;;17.83;12.63;;;3.80;99.90;;;;;;5033352;28;20382;-72
2023/01/23 11:02:27;;;;;;;15.63;11.60;;;3.50;99.90;;;;;;5033366;28;20406;-70
2023/01/23 11:04:53;;;;;;;18.53;13.63;;;3.30;99.90;;;;;;5033848;28;20476;-73
2023/01/23 11:07:21;;;;;;;17.57;12.10;;;3.10;99.90;;;;;;5033924;28;20402;-72
2023/01/23 11:09:53;;;;;;;15.60;12.20;;;3.10;99.90;;;;;;5032572;28;20245;-72
2023/01/23 11:12:27;;;;;;;16.20;13.07;;;3.00;99.90;;;;;;5033186;28;20454;-72
2023/01/23 11:15:18;;;;;;;18.80;13.70;;;3.00;99.90;;;;;;5015335;28;20457;-72
2023/01/23 11:17:43;;;;;;;19.07;14.77;;;3.10;99.90;;;;;;5033093;28;20908;-72
2023/01/23 11:20:28;;;;;;;17.80;12.90;;;3.40;99.90;;;;;;5033359;28;20410;-72
2023/01/23 11:23:15;;;;;;;17.10;13.90;;;3.50;99.90;;;;;;5033382;28;20262;-71
2023/01/23 11:25:49;;;;;;;16.60;13.07;;;3.60;99.90;;;;;;5032612;28;20402;-72
2023/01/23 11:28:22;;;;;;;17.53;13.63;;;3.60;99.90;;;;;;5030835;28;20406;-72
2023/01/23 11:31:02;;;;;;;17.60;13.80;;;3.90;99.90;;;;;;5013541;28;20383;-72
2023/01/23 11:33:43;;;;;;;17.60;13.80;;;3.90;99.90;;;;;;5013669;28;20462;-72
2023/01/23 11:36:17;;;;;;;15.50;13.43;;;3.90;99.90;;;;;;5013420;28;20391;-71
2023/01/23 11:38:53;;;;;;;16.10;13.37;;;3.70;99.90;;;;;;5013406;28;20403;-72
2023/01/23 11:41:22;;;;;;;15.83;12.70;;;3.80;99.90;;;;;;5033374;28;20425;-72
2023/01/23 11:43:48;;;;;;;19.60;13.20;;;3.80;99.90;;;;;;5016130;28;20437;-71
2023/01/23 11:46:25;;;;;;;16.53;12.93;;;3.60;99.90;;;;;;5031714;28;20440;-73
2023/01/23 11:49:01;;;;;;;20.40;13.90;;;3.40;99.90;;;;;;5031737;28;20159;-72
2023/01/23 11:51:46;;;;;;;18.77;14.17;;;3.40;99.90;;;;;;5032179;28;20434;-72
2023/01/23 11:54:43;;;;;;;18.53;14.80;;;3.30;99.90;;;;;;5037065;28;20414;-72
2023/01/23 11:58:03;;;;;;;16.80;13.07;;;3.20;99.90;;;;;;5036983;28;20383;-72
2023/01/23 12:00:33;;;;;;;17.87;13.17;;;3.20;99.90;;;;;;4975728;28;20416;-72
2023/01/23 12:03:06;;;;;;;19.33;14.20;;;3.20;99.90;;;;;;5026105;28;20546;-72
2023/01/23 12:06:10;;;;;;;18.23;13.80;;;3.00;99.90;;;;;;5037010;28;20936;-72
2023/01/23 12:09:00;;;;;;;19.10;13.70;;;3.10;99.90;;;;;;5036702;28;20803;-72
2023/01/23 12:11:34;;;;;;;21.60;14.90;;;3.10;99.90;;;;;;5036292;28;20533;-72
2023/01/23 12:14:22;;;;;;;17.83;13.67;;;3.00;99.90;;;;;;5036463;28;20441;-70
2023/01/23 12:17:01;;;;;;;19.90;14.33;;;3.10;99.90;;;;;;5036868;28;20386;-71
2023/01/23 12:19:29;;;;;;;18.53;14.47;;;3.10;99.90;;;;;;5036417;28;20386;-71
2023/01/23 12:22:04;;;;;;;21.23;15.53;;;3.20;99.90;;;;;;5036555;28;20402;-71
2023/01/23 12:24:56;;;;;;;18.13;13.50;;;3.50;99.90;;;;;;5036269;28;20456;-71
2023/01/23 12:27:43;;;;;;;16.50;14.20;;;3.80;99.90;;;;;;5036159;28;20545;-71
2023/01/23 12:30:15;;;;;;;20.20;13.70;;;4.00;99.90;;;;;;5034636;28;20398;-71
2023/01/23 12:32:59;;;;;;;20.67;14.20;;;3.80;99.90;;;;;;5035758;28;20964;-72
2023/01/23 12:35:27;;;;;;;19.10;13.60;;;4.00;99.90;;;;;;5036115;28;20473;-72
2023/01/23 12:37:53;;;;;;;19.23;13.00;;;3.90;99.90;;;;;;5036087;28;20406;-71
2023/01/23 12:40:27;;;;;;;18.90;15.43;;;4.00;99.90;;;;;;5034601;28;20413;-71
2023/01/23 12:43:04;;;;;;;23.17;15.30;;;3.90;99.90;;;;;;5036200;28;20556;-72
2023/01/23 12:45:31;;;;;;;20.97;15.43;;;3.90;99.90;;;;;;5036361;28;20423;-73
2023/01/23 12:48:16;;;;;;;20.60;14.90;;;4.00;99.90;;;;;;5036334;28;20406;-72
2023/01/23 12:50:52;;;;;;;18.80;14.57;;;3.80;99.90;;;;;;5036050;28;20417;-72
2023/01/23 12:53:21;;;;;;;19.17;13.83;;;4.10;99.90;;;;;;5036553;28;20416;-72